Sault Ste Marie Airport
CYAM : now visible

Airfield :











YOU CAN JOIN US ON...

 
LOGIN :

Register | Disclaimer

   EN    FR    IT 

 









Legend :    VFR   Marginal VFR   IFR   Intensive IFR   Very Intensive IFR
Visi :
Ceiling :
>= 8 km
>= 3000ft
5 to 8 km
1000 to 3000 ft
1500m to 5 km
500 to 1000 ft
800 to 1500m
200 to 500 ft
< 800m
< 200 ft
Symbols :   Thunderstorms  Fog  Heavy snow  Heavy precipitations  Wind > 20 kt







- Airport Elevation : 630 ft
- IATA code : YAM


CYAM - Sault Ste Marie

CURRENT METAR :
  • 211800Z 08004KT 15SM -SHRA BKN061 BKN067 OVC091 10/M01 A3000 RMK CU5AC1AC2 SLP166

EXPIRED METARs :
  • 211746Z 06006KT 15SM SCT058 BKN067 OVC092 11/M01 A3000 RMK CU4AC2AC2 SLP166
  • 211700Z 19003KT 120V230 15SM -SHRA SCT061 BKN074 BKN092 11/M02 A3000 RMK CU3ACC4AC1 AC TR SLP165
  • 211612Z 00000KT 15SM -SHRA BKN067 BKN099 11/M01 A2999 RMK ACC7AC1 AC TR SLP162
  • 211600Z 12002KT 15SM VCSH BKN076 BKN099 11/M02 A2997 RMK ACC6AC1 VCSH SW-W PRESFR SLP157

TAF TAF CYAM
Valid from the 21 at 14:00 until the 22 at 02:00 UTC


211338Z 2114/2202 VRB03KT P6SM OVC080
TEMPO 2114/2117 P6SM -SHRA OVC060
BECMG 2119/2120 05008KT
FM212300 05006KT P6SM OVC070
TEMPO 2123/2202 P6SM -SHRA RMK NXT FCST BY 212000Z
CZYZ FIR / North America



MET'MAP, your aeronautical weather chart ! - Copyright ORBIFLY December 2007 - Disclaimer

ORBIFLY MET'MAP TEAM :

Programming & Development : Alexandra Zaïnal
Concept & Development : Baudouin d'Aumeries
Co-Development & Prog : Marc-Olivier Méhu
Technical & hardware support : Manuel Goepfert

Contact : metmap@orbifly.com




SOURCES & CREDITS :

   NOAA       Earth
Advisory